Terminal Aerodrome Forecast
Issued by NWS

Home | Current Version | Previous Version | Text Only | Print | Product List | Glossary Off
Versions: 1 2 3 4 5 6 7 8 9 10 11 12 13 14 15 16 17 18 19 20 21 22

207
FTUS43 KPAH 242342
TAFCGI
TAF
KCGI 242342Z 2500/2524 25011G16KT P6SM BKN040
     FM250300 28013G18KT P6SM SCT100
     FM251400 31012KT P6SM SCT250=

USA.gov is the U.S. government's official web portal to all federal, state and local government web resources and services.